createdAt,value
2022-12-31T00:00:13.607Z,22.27
2022-12-31T00:02:40.593Z,17.90
2022-12-31T00:05:07.977Z,20.10
2022-12-31T00:10:03.199Z,16.38
2022-12-31T00:12:30.052Z,21.63
2022-12-31T00:14:56.942Z,17.45
2022-12-31T00:17:23.784Z,17.13
2022-12-31T00:19:50.595Z,22.75
2022-12-31T00:22:17.411Z,16.52
2022-12-31T00:24:44.296Z,20.00
2022-12-31T00:27:11.127Z,18.20
2022-12-31T00:29:38.963Z,17.05
2022-12-31T00:32:06.141Z,18.08
2022-12-31T00:34:32.968Z,19.20
2022-12-31T00:36:59.836Z,17.65
2022-12-31T00:39:26.712Z,18.98
2022-12-31T00:41:53.569Z,16.70
2022-12-31T00:44:20.623Z,16.55
2022-12-31T00:46:48.325Z,16.23
2022-12-31T00:49:16.497Z,17.02
2022-12-31T00:51:43.245Z,17.77
2022-12-31T00:54:10.238Z,16.33
2022-12-31T00:56:37.006Z,18.40
2022-12-31T00:59:04.128Z,17.38
2022-12-31T01:01:33.837Z,14.90
2022-12-31T01:04:04.424Z,16.95
2022-12-31T01:06:31.320Z,16.63
2022-12-31T01:08:58.415Z,18.30
2022-12-31T01:11:29.302Z,18.55
2022-12-31T01:13:59.345Z,19.45
2022-12-31T01:16:39.479Z,19.23
2022-12-31T01:19:10.428Z,20.20
2022-12-31T01:21:39.872Z,22.13
2022-12-31T01:24:07.942Z,24.02
2022-12-31T01:26:35.152Z,23.20
2022-12-31T01:29:01.996Z,18.60
2022-12-31T01:31:29.807Z,24.27
2022-12-31T01:33:58.280Z,25.45
2022-12-31T01:36:27.568Z,25.40
2022-12-31T01:38:56.098Z,23.60
2022-12-31T01:41:32.163Z,22.58
2022-12-31T01:44:00.382Z,22.63
2022-12-31T01:46:42.006Z,26.42
2022-12-31T01:49:27.398Z,25.92
2022-12-31T01:52:03.001Z,25.02
2022-12-31T01:54:33.607Z,24.50
2022-12-31T01:57:00.976Z,26.75
2022-12-31T01:59:28.974Z,21.58
2022-12-31T02:01:56.202Z,25.30
2022-12-31T02:04:24.952Z,28.85
2022-12-31T02:07:00.130Z,24.98
2022-12-31T02:09:27.296Z,21.15
2022-12-31T02:11:54.210Z,22.70
2022-12-31T02:14:26.972Z,20.55
2022-12-31T02:17:09.441Z,26.33
2022-12-31T02:20:30.223Z,21.83
2022-12-31T02:23:41.249Z,27.02
2022-12-31T02:26:31.076Z,22.85
2022-12-31T02:29:39.308Z,22.35
2022-12-31T02:32:10.334Z,29.10
2022-12-31T02:34:52.958Z,28.75
2022-12-31T02:37:21.571Z,25.10
2022-12-31T02:39:49.182Z,25.60
2022-12-31T02:42:16.035Z,28.25
2022-12-31T02:44:43.301Z,21.42
2022-12-31T02:47:10.429Z,26.15
2022-12-31T02:50:22.624Z,25.40
2022-12-31T02:53:17.296Z,28.90
2022-12-31T02:56:09.277Z,28.50
2022-12-31T02:59:29.836Z,27.17
2022-12-31T03:02:15.173Z,30.13
2022-12-31T03:04:46.908Z,27.90
2022-12-31T03:07:18.029Z,24.75
2022-12-31T03:09:44.841Z,38.92
2022-12-31T03:12:31.524Z,23.27
2022-12-31T03:14:58.650Z,31.48
2022-12-31T03:17:26.131Z,29.25
2022-12-31T03:20:11.889Z,27.15
2022-12-31T03:22:41.795Z,25.02
2022-12-31T03:25:35.915Z,29.85
2022-12-31T03:30:31.957Z,26.40
2022-12-31T03:32:59.423Z,30.10
2022-12-31T03:35:28.560Z,35.58
2022-12-31T03:37:56.441Z,32.78
2022-12-31T03:40:25.527Z,38.65
2022-12-31T03:42:53.005Z,26.75
2022-12-31T03:45:20.257Z,42.78
2022-12-31T03:47:47.745Z,33.00
2022-12-31T03:50:17.017Z,32.25
2022-12-31T03:52:44.915Z,28.52
2022-12-31T03:55:12.606Z,38.45
2022-12-31T03:57:39.868Z,40.88
2022-12-31T04:00:08.904Z,46.85
2022-12-31T04:02:36.324Z,44.60
2022-12-31T04:05:03.500Z,34.58
2022-12-31T04:07:30.400Z,35.05
2022-12-31T04:09:57.680Z,41.92
2022-12-31T04:12:24.703Z,43.47
2022-12-31T04:14:51.746Z,53.10
2022-12-31T04:17:18.566Z,51.20
2022-12-31T04:19:45.377Z,42.40
2022-12-31T04:22:12.245Z,47.42
2022-12-31T04:24:39.001Z,50.22
2022-12-31T04:27:07.955Z,54.10
2022-12-31T04:29:35.518Z,44.92
2022-12-31T04:32:04.003Z,45.25
2022-12-31T04:34:30.904Z,51.42
2022-12-31T04:36:57.822Z,57.80
2022-12-31T04:39:26.360Z,53.03
2022-12-31T04:41:54.209Z,51.88
2022-12-31T04:44:21.383Z,47.58
2022-12-31T04:46:48.216Z,53.15
2022-12-31T04:49:15.145Z,46.85
2022-12-31T04:51:41.969Z,47.22
2022-12-31T04:54:08.832Z,47.08
2022-12-31T04:56:38.847Z,46.97
2022-12-31T04:59:07.346Z,48.95
2022-12-31T05:01:34.433Z,40.60
2022-12-31T05:04:01.229Z,46.45
2022-12-31T05:06:28.040Z,43.22
2022-12-31T05:08:54.927Z,36.47
2022-12-31T05:11:21.720Z,48.67
2022-12-31T05:13:48.646Z,39.80
2022-12-31T05:16:15.475Z,43.67
2022-12-31T05:18:42.349Z,36.15
2022-12-31T05:21:15.316Z,45.63
2022-12-31T05:23:42.152Z,39.53
2022-12-31T05:26:08.973Z,31.88
2022-12-31T05:28:35.785Z,34.33
2022-12-31T05:31:02.645Z,36.88
2022-12-31T05:33:29.525Z,39.47
2022-12-31T05:35:58.633Z,31.00
2022-12-31T05:38:26.301Z,27.02
2022-12-31T05:41:00.820Z,34.88
2022-12-31T05:43:27.816Z,24.70
2022-12-31T05:45:54.700Z,25.25
2022-12-31T05:48:21.891Z,21.00
2022-12-31T05:50:50.005Z,21.95
2022-12-31T05:53:16.865Z,23.55
2022-12-31T05:55:45.922Z,19.13
2022-12-31T05:58:13.253Z,16.67
2022-12-31T06:00:40.416Z,21.20
2022-12-31T06:03:07.372Z,26.83
2022-12-31T06:05:34.225Z,17.30
2022-12-31T06:08:00.991Z,19.40
2022-12-31T06:10:27.798Z,26.33
2022-12-31T06:12:54.591Z,18.45
2022-12-31T06:15:21.426Z,19.65
2022-12-31T06:17:48.429Z,16.55
2022-12-31T06:20:15.464Z,20.08
2022-12-31T06:22:42.362Z,17.30
2022-12-31T06:25:09.639Z,18.35
2022-12-31T06:27:36.455Z,15.60
2022-12-31T06:30:03.796Z,15.23
2022-12-31T06:32:30.960Z,14.85
2022-12-31T06:34:57.743Z,13.48
2022-12-31T06:37:24.574Z,16.33
2022-12-31T06:39:52.359Z,16.05
2022-12-31T06:42:19.122Z,18.92
2022-12-31T06:44:45.891Z,18.98
2022-12-31T06:47:12.844Z,21.55
2022-12-31T06:49:41.685Z,20.90
2022-12-31T06:52:08.449Z,21.70
2022-12-31T06:54:35.562Z,17.40
2022-12-31T06:57:02.691Z,19.35
2022-12-31T06:59:30.164Z,20.80
2022-12-31T07:02:24.703Z,19.67
2022-12-31T07:04:57.452Z,20.25
2022-12-31T07:07:48.035Z,27.83
2022-12-31T07:10:41.344Z,28.58
2022-12-31T07:13:26.455Z,23.65
2022-12-31T07:16:33.158Z,31.63
2022-12-31T07:19:21.784Z,33.33
2022-12-31T07:21:51.311Z,22.63
2022-12-31T07:24:18.700Z,26.08
2022-12-31T07:26:56.713Z,33.58
2022-12-31T07:29:32.986Z,24.30
2022-12-31T07:32:23.601Z,25.40
2022-12-31T07:35:11.346Z,32.72
2022-12-31T07:37:41.209Z,34.75
2022-12-31T07:40:13.799Z,29.77
2022-12-31T07:42:59.678Z,29.67
2022-12-31T07:45:38.037Z,33.03
2022-12-31T07:48:18.359Z,34.28
2022-12-31T07:50:45.513Z,34.47
2022-12-31T07:53:12.636Z,29.70
2022-12-31T07:55:39.503Z,29.33
2022-12-31T07:58:47.610Z,37.80
2022-12-31T08:01:19.881Z,36.78
2022-12-31T08:04:13.044Z,29.13
2022-12-31T08:07:00.327Z,28.90
2022-12-31T08:09:39.242Z,27.75
2022-12-31T08:12:08.586Z,31.95
2022-12-31T08:14:44.111Z,31.63
2022-12-31T08:17:16.977Z,33.80
2022-12-31T08:19:45.765Z,29.80
2022-12-31T08:22:23.680Z,25.75
2022-12-31T08:25:12.692Z,28.30
2022-12-31T08:27:46.997Z,27.80
2022-12-31T08:30:16.440Z,28.48
2022-12-31T08:33:04.465Z,27.48
2022-12-31T08:36:02.661Z,24.80
2022-12-31T08:39:01.333Z,26.70
2022-12-31T08:41:43.435Z,23.60
2022-12-31T08:44:39.530Z,28.35
2022-12-31T08:47:35.484Z,25.75
2022-12-31T08:50:05.951Z,29.48
2022-12-31T08:52:33.047Z,24.77
2022-12-31T08:55:00.199Z,26.90
2022-12-31T08:57:41.956Z,24.15
2022-12-31T09:00:16.974Z,29.67
2022-12-31T09:02:53.156Z,20.70
2022-12-31T09:05:41.672Z,24.70
2022-12-31T09:08:26.869Z,29.80
2022-12-31T09:11:22.562Z,24.05
2022-12-31T09:14:20.318Z,21.02
2022-12-31T09:17:29.945Z,24.10
2022-12-31T09:19:57.266Z,30.50
2022-12-31T09:22:24.619Z,28.52
2022-12-31T09:24:51.585Z,30.10
2022-12-31T09:27:50.649Z,26.13
2022-12-31T09:30:18.769Z,27.55
2022-12-31T09:33:10.330Z,27.55
2022-12-31T09:35:56.799Z,24.35
2022-12-31T09:38:23.837Z,22.65
2022-12-31T09:41:05.648Z,24.75
2022-12-31T09:43:47.709Z,23.48
2022-12-31T09:46:35.774Z,21.35
2022-12-31T09:49:37.944Z,20.23
2022-12-31T09:52:38.415Z,25.23
2022-12-31T09:55:31.413Z,20.38
2022-12-31T09:58:07.283Z,24.15
2022-12-31T10:00:43.669Z,22.40
2022-12-31T10:03:32.277Z,24.92
2022-12-31T10:06:08.090Z,25.38
2022-12-31T10:09:02.882Z,25.17
2022-12-31T10:11:46.200Z,25.77
2022-12-31T10:14:31.082Z,28.88
2022-12-31T10:17:36.601Z,25.58
2022-12-31T10:20:45.285Z,29.88
2022-12-31T10:23:38.152Z,26.98
2022-12-31T10:26:25.442Z,34.78
2022-12-31T10:29:22.082Z,33.60
2022-12-31T10:32:16.077Z,31.40
2022-12-31T10:35:14.255Z,38.45
2022-12-31T10:37:49.231Z,34.75
2022-12-31T10:40:45.284Z,49.10
2022-12-31T10:43:30.841Z,30.58
2022-12-31T10:46:22.462Z,28.13
2022-12-31T10:49:12.277Z,30.33
2022-12-31T10:51:48.264Z,27.75
2022-12-31T10:54:21.080Z,30.73
2022-12-31T10:57:23.632Z,26.83
2022-12-31T11:00:00.857Z,36.75
2022-12-31T11:02:33.696Z,31.38
2022-12-31T11:05:12.585Z,23.35
2022-12-31T11:08:19.859Z,32.85
2022-12-31T11:11:07.951Z,32.47
2022-12-31T11:13:59.129Z,25.80
2022-12-31T11:16:43.460Z,30.65
2022-12-31T11:19:31.227Z,38.22
2022-12-31T11:22:03.857Z,42.17
2022-12-31T11:25:00.617Z,36.07
2022-12-31T11:27:54.436Z,26.92
2022-12-31T11:31:09.479Z,34.38
2022-12-31T11:33:59.699Z,27.05
2022-12-31T11:36:46.737Z,38.20
2022-12-31T11:39:31.142Z,38.53
2022-12-31T11:42:01.401Z,31.90
2022-12-31T11:44:50.987Z,35.28
2022-12-31T11:48:12.193Z,29.27
2022-12-31T11:50:42.436Z,35.67
2022-12-31T11:53:18.912Z,33.85
2022-12-31T11:56:11.282Z,41.20
2022-12-31T11:58:46.444Z,44.95
2022-12-31T12:01:36.136Z,38.95
2022-12-31T12:04:03.591Z,42.58
2022-12-31T12:06:32.522Z,33.67
2022-12-31T12:09:06.933Z,48.72
2022-12-31T12:11:37.998Z,48.72
2022-12-31T12:14:41.658Z,41.63
2022-12-31T12:17:12.954Z,46.05
2022-12-31T12:19:45.476Z,35.60
2022-12-31T12:22:24.136Z,37.00
2022-12-31T12:25:03.588Z,40.33
2022-12-31T12:27:34.152Z,41.97
2022-12-31T12:30:27.902Z,44.05
2022-12-31T12:33:00.365Z,31.92
2022-12-31T12:35:30.575Z,42.17
2022-12-31T12:38:12.615Z,40.90
2022-12-31T12:40:40.132Z,49.05
2022-12-31T12:43:19.957Z,37.80
2022-12-31T12:45:51.619Z,37.60
2022-12-31T12:48:47.161Z,36.67
2022-12-31T12:51:48.717Z,44.42
2022-12-31T12:54:23.596Z,37.08
2022-12-31T12:56:59.407Z,38.50
2022-12-31T13:00:08.255Z,40.65
2022-12-31T13:02:53.786Z,42.45
2022-12-31T13:05:28.677Z,41.70
2022-12-31T13:08:32.250Z,39.97
2022-12-31T13:11:18.771Z,44.37
2022-12-31T13:14:14.555Z,37.78
2022-12-31T13:16:47.650Z,36.13
2022-12-31T13:19:41.987Z,48.65
2022-12-31T13:22:19.551Z,37.75
2022-12-31T13:25:01.898Z,49.78
2022-12-31T13:27:51.893Z,38.72
2022-12-31T13:30:20.051Z,43.90
2022-12-31T13:32:52.639Z,40.25
2022-12-31T13:35:38.207Z,55.27
2022-12-31T13:38:21.645Z,40.38
2022-12-31T13:40:57.305Z,47.10
2022-12-31T13:43:39.068Z,35.45
2022-12-31T13:46:46.352Z,37.70
2022-12-31T13:49:21.816Z,41.17
2022-12-31T13:52:13.428Z,38.20
2022-12-31T13:55:01.396Z,37.58
2022-12-31T13:57:53.568Z,46.13
2022-12-31T14:00:44.711Z,43.67
2022-12-31T14:03:24.753Z,50.25
2022-12-31T14:06:37.592Z,44.50
2022-12-31T14:09:05.973Z,45.97
2022-12-31T14:11:58.661Z,45.90
2022-12-31T14:14:53.603Z,43.40
2022-12-31T14:17:32.899Z,47.13
2022-12-31T14:20:40.743Z,38.70
2022-12-31T14:23:26.350Z,39.70
2022-12-31T14:26:01.340Z,43.42
2022-12-31T14:28:46.614Z,50.72
2022-12-31T14:31:34.204Z,41.03
2022-12-31T14:34:30.165Z,38.80
2022-12-31T14:37:41.720Z,46.58
2022-12-31T14:40:30.535Z,46.58
2022-12-31T14:43:26.345Z,46.53
2022-12-31T14:46:12.049Z,49.50
2022-12-31T14:49:03.911Z,45.30
2022-12-31T14:51:31.252Z,38.00
2022-12-31T14:53:58.801Z,40.72
2022-12-31T14:56:39.051Z,42.50
2022-12-31T14:59:34.435Z,37.58
2022-12-31T15:02:04.427Z,54.33
2022-12-31T15:04:46.274Z,37.03
2022-12-31T15:07:30.280Z,50.38
2022-12-31T15:10:23.465Z,35.38
2022-12-31T15:13:19.108Z,45.47
2022-12-31T15:16:07.366Z,39.28
2022-12-31T15:18:50.166Z,41.85
2022-12-31T15:21:46.148Z,42.45
2022-12-31T15:24:25.773Z,53.28
2022-12-31T15:26:56.594Z,47.30
2022-12-31T15:29:44.060Z,42.08
2022-12-31T15:32:20.903Z,41.78
2022-12-31T15:34:47.754Z,40.67
2022-12-31T15:37:35.865Z,46.10
2022-12-31T15:40:16.896Z,46.75
2022-12-31T15:42:50.523Z,43.13
2022-12-31T15:45:39.491Z,45.47
2022-12-31T15:48:22.177Z,42.33
2022-12-31T15:50:54.230Z,39.13
2022-12-31T15:53:24.434Z,42.55
2022-12-31T15:55:54.691Z,42.97
2022-12-31T15:58:26.189Z,39.92
2022-12-31T16:01:14.891Z,39.08
2022-12-31T16:04:02.727Z,37.97
2022-12-31T16:06:31.483Z,31.85
2022-12-31T16:08:59.183Z,44.42
2022-12-31T16:11:29.951Z,39.85
2022-12-31T16:13:58.654Z,39.58
2022-12-31T16:16:31.735Z,39.92
2022-12-31T16:19:00.651Z,42.15
2022-12-31T16:21:34.786Z,36.20
2022-12-31T16:24:05.098Z,44.38
2022-12-31T16:26:38.961Z,45.67
2022-12-31T16:29:15.056Z,52.53
2022-12-31T16:31:44.543Z,52.00
2022-12-31T16:34:15.738Z,58.45
2022-12-31T16:36:43.158Z,48.95
2022-12-31T16:39:36.919Z,41.47
2022-12-31T16:42:28.521Z,57.20
2022-12-31T16:44:57.033Z,39.45
2022-12-31T16:47:34.116Z,35.15
2022-12-31T16:50:23.121Z,47.17
2022-12-31T16:52:57.949Z,39.75
2022-12-31T16:55:30.007Z,48.78
2022-12-31T16:58:36.427Z,43.40
2022-12-31T17:01:23.256Z,45.08
2022-12-31T17:03:55.307Z,50.38
2022-12-31T17:06:22.567Z,44.35
2022-12-31T17:09:09.818Z,47.22
2022-12-31T17:11:57.741Z,40.92
2022-12-31T17:14:30.473Z,45.53
2022-12-31T17:17:03.549Z,43.38
2022-12-31T17:19:42.483Z,45.95
2022-12-31T17:22:21.730Z,44.05
2022-12-31T17:24:51.847Z,50.78
2022-12-31T17:27:19.616Z,44.97
2022-12-31T17:29:48.341Z,43.47
2022-12-31T17:32:35.566Z,39.35
2022-12-31T17:35:02.599Z,51.90
2022-12-31T17:37:30.775Z,47.90
2022-12-31T17:40:40.647Z,35.60
2022-12-31T17:42:50.497Z,46.38
2022-12-31T17:45:21.625Z,39.75
2022-12-31T17:47:52.353Z,48.60
2022-12-31T17:50:24.964Z,47.42
2022-12-31T17:52:56.891Z,50.80
2022-12-31T17:55:24.077Z,49.33
2022-12-31T17:57:53.936Z,43.85
2022-12-31T18:00:24.275Z,51.90
2022-12-31T18:02:51.279Z,51.88
2022-12-31T18:05:20.821Z,47.42
2022-12-31T18:08:07.838Z,49.20
2022-12-31T18:10:37.781Z,51.85
2022-12-31T18:13:07.714Z,44.95
2022-12-31T18:15:34.529Z,45.75
2022-12-31T18:18:11.289Z,48.63
2022-12-31T18:20:38.098Z,47.53
2022-12-31T18:23:04.886Z,50.67
2022-12-31T18:25:31.663Z,51.75
2022-12-31T18:28:05.562Z,37.33
2022-12-31T18:30:32.729Z,45.53
2022-12-31T18:32:59.508Z,53.28
2022-12-31T18:36:06.410Z,43.00
2022-12-31T18:38:14.864Z,50.85
2022-12-31T18:40:46.428Z,52.70
2022-12-31T18:43:18.019Z,45.72
2022-12-31T18:45:46.500Z,46.80
2022-12-31T18:48:13.689Z,44.80
2022-12-31T18:50:41.026Z,52.15
2022-12-31T18:53:11.850Z,48.65
2022-12-31T18:55:41.392Z,43.67
2022-12-31T18:58:10.553Z,55.13
2022-12-31T19:00:38.361Z,48.80
2022-12-31T19:03:08.393Z,51.28
2022-12-31T19:05:37.815Z,48.17
2022-12-31T19:08:05.043Z,53.22
2022-12-31T19:10:31.899Z,69.78
2022-12-31T19:12:58.751Z,46.03
2022-12-31T19:15:25.529Z,54.50
2022-12-31T19:18:12.673Z,46.55
2022-12-31T19:20:41.056Z,39.38
2022-12-31T19:23:19.211Z,37.97
2022-12-31T19:25:47.669Z,41.08
2022-12-31T19:28:22.237Z,36.35
2022-12-31T19:30:49.899Z,45.70
2022-12-31T19:33:17.426Z,33.97
2022-12-31T19:35:45.188Z,28.38
2022-12-31T19:38:24.091Z,44.58
2022-12-31T19:40:52.059Z,28.27
2022-12-31T19:43:21.083Z,28.42
2022-12-31T19:45:48.642Z,25.95
2022-12-31T19:48:24.679Z,28.67
2022-12-31T19:50:55.570Z,24.42
2022-12-31T19:53:25.164Z,30.98
2022-12-31T19:55:52.774Z,25.27
2022-12-31T19:58:27.852Z,29.30
2022-12-31T20:01:01.914Z,25.58
2022-12-31T20:03:31.575Z,28.85
2022-12-31T20:06:06.981Z,31.95
2022-12-31T20:08:35.642Z,23.92
2022-12-31T20:11:13.631Z,27.52
2022-12-31T20:13:41.449Z,26.77
2022-12-31T20:16:10.649Z,23.02
2022-12-31T20:18:38.748Z,20.33
2022-12-31T20:21:17.696Z,21.77
2022-12-31T20:23:44.687Z,23.77
2022-12-31T20:26:11.568Z,22.25
2022-12-31T20:28:39.720Z,20.05
2022-12-31T20:31:11.991Z,20.02
2022-12-31T20:33:39.380Z,18.40
2022-12-31T20:36:08.545Z,19.38
2022-12-31T20:38:35.586Z,17.88
2022-12-31T20:41:11.239Z,19.45
2022-12-31T20:43:38.481Z,19.92
2022-12-31T20:46:15.787Z,15.75
2022-12-31T20:48:44.408Z,16.50
2022-12-31T20:51:13.397Z,15.82
2022-12-31T20:53:40.385Z,16.92
2022-12-31T20:56:08.680Z,16.13
2022-12-31T20:58:35.976Z,16.65
2022-12-31T21:01:06.663Z,18.15
2022-12-31T21:06:27.081Z,19.08
2022-12-31T21:08:55.550Z,19.48
2022-12-31T21:11:41.155Z,14.68
2022-12-31T21:14:08.347Z,17.00
2022-12-31T21:16:35.434Z,16.80
2022-12-31T21:19:02.438Z,14.95
2022-12-31T21:21:29.337Z,15.57
2022-12-31T21:23:56.268Z,15.50
2022-12-31T21:26:23.105Z,13.80
2022-12-31T21:28:49.922Z,13.45
2022-12-31T21:31:16.854Z,12.13
2022-12-31T21:33:47.627Z,13.98
2022-12-31T21:36:15.736Z,13.95
2022-12-31T21:38:43.368Z,17.67
2022-12-31T21:41:34.929Z,17.52
2022-12-31T21:44:02.793Z,18.23
2022-12-31T21:46:30.036Z,20.60
2022-12-31T21:48:58.589Z,18.98
2022-12-31T21:51:26.690Z,16.48
2022-12-31T21:53:53.601Z,12.98
2022-12-31T21:56:21.591Z,13.75
2022-12-31T21:59:13.668Z,15.95
2022-12-31T22:01:59.576Z,14.15
2022-12-31T22:07:14.142Z,11.45
2022-12-31T22:09:40.977Z,11.50
2022-12-31T22:12:08.017Z,12.98
2022-12-31T22:14:34.924Z,13.48
2022-12-31T22:17:01.729Z,11.25
2022-12-31T22:19:28.577Z,12.70
2022-12-31T22:21:55.411Z,12.40
2022-12-31T22:24:22.173Z,12.50
2022-12-31T22:26:49.034Z,14.15
2022-12-31T22:29:15.874Z,13.15
2022-12-31T22:31:42.783Z,11.38
2022-12-31T22:34:09.641Z,14.13
2022-12-31T22:36:36.499Z,13.52
2022-12-31T22:39:03.533Z,15.13
2022-12-31T22:41:30.381Z,11.23
2022-12-31T22:44:03.552Z,12.10
2022-12-31T22:46:31.753Z,13.00
2022-12-31T22:48:59.888Z,12.82
2022-12-31T22:51:55.741Z,10.90
2022-12-31T22:54:15.001Z,13.40
2022-12-31T22:56:41.989Z,12.82
2022-12-31T22:59:09.417Z,11.43
2022-12-31T23:01:36.969Z,11.60
2022-12-31T23:04:04.845Z,10.02
2022-12-31T23:06:32.156Z,11.45
2022-12-31T23:09:17.726Z,11.40
2022-12-31T23:11:44.589Z,9.85
2022-12-31T23:14:34.718Z,10.00
2022-12-31T23:17:30.459Z,9.82
2022-12-31T23:20:20.698Z,9.90
2022-12-31T23:23:06.185Z,8.65
2022-12-31T23:25:36.663Z,8.43
2022-12-31T23:28:04.932Z,8.98
2022-12-31T23:30:31.899Z,11.20
2022-12-31T23:32:58.789Z,9.85
2022-12-31T23:35:25.824Z,9.52
2022-12-31T23:37:52.702Z,9.93
2022-12-31T23:40:21.769Z,10.02
2022-12-31T23:42:49.974Z,11.63
2022-12-31T23:45:16.915Z,12.13
2022-12-31T23:47:43.785Z,11.65
2022-12-31T23:50:10.648Z,10.52
2022-12-31T23:52:37.506Z,15.13
2022-12-31T23:55:04.808Z,12.32
2022-12-31T23:57:31.639Z,27.70
2022-12-31T23:59:58.433Z,12.95
